createdAt,value
2023-10-08T00:01:34.966Z,97201.06
2023-10-08T00:04:05.911Z,97195.13
2023-10-08T00:06:34.080Z,97190.67
2023-10-08T00:09:07.444Z,97185.29
2023-10-08T00:11:37.827Z,97184.71
2023-10-08T00:14:09.722Z,97181.27
2023-10-08T00:16:41.484Z,97177.61
2023-10-08T00:19:10.415Z,97182.30
2023-10-08T00:21:39.534Z,97174.52
2023-10-08T00:24:08.194Z,97166.91
2023-10-08T00:26:41.230Z,97164.70
2023-10-08T00:29:39.577Z,97159.85
2023-10-08T00:32:13.256Z,97157.89
2023-10-08T00:34:44.978Z,97148.84
2023-10-08T00:37:15.677Z,97140.33
2023-10-08T00:39:44.434Z,97130.92
2023-10-08T00:42:14.275Z,97130.07
2023-10-08T00:44:53.061Z,97129.95
2023-10-08T00:47:27.248Z,97132.45
2023-10-08T00:50:11.755Z,97129.80
2023-10-08T00:53:03.127Z,97134.23
2023-10-08T00:55:31.630Z,97130.92
2023-10-08T00:58:08.743Z,97126.92
2023-10-08T01:00:42.224Z,97122.30
2023-10-08T01:03:16.792Z,97118.33
2023-10-08T01:05:49.496Z,97121.08
2023-10-08T01:08:37.421Z,97115.56
2023-10-08T01:11:55.143Z,97112.89
2023-10-08T01:14:33.000Z,97112.81
2023-10-08T01:17:01.369Z,97114.03
2023-10-08T01:19:29.640Z,97115.74
2023-10-08T01:22:00.741Z,97110.60
2023-10-08T01:24:28.699Z,97106.78
2023-10-08T01:26:56.561Z,97102.42
2023-10-08T01:29:26.255Z,97105.45
2023-10-08T01:31:54.635Z,97106.30
2023-10-08T01:34:28.250Z,97103.30
2023-10-08T01:36:57.062Z,97106.78
2023-10-08T01:39:27.629Z,97104.98
2023-10-08T01:41:55.528Z,97097.58
2023-10-08T01:44:23.485Z,97095.34
2023-10-08T01:46:51.549Z,97096.77
2023-10-08T01:49:23.434Z,97097.26
2023-10-08T01:51:52.060Z,97099.51
2023-10-08T01:54:22.584Z,97094.88
2023-10-08T01:56:51.602Z,97091.91
2023-10-08T01:59:19.844Z,97089.27
2023-10-08T02:01:48.174Z,97090.80
2023-10-08T02:04:18.068Z,97086.56
2023-10-08T02:06:47.063Z,97083.06
2023-10-08T02:09:16.703Z,97079.81
2023-10-08T02:11:52.188Z,97073.47
2023-10-08T02:14:21.654Z,97073.09
2023-10-08T02:16:51.095Z,97068.13
2023-10-08T02:19:19.792Z,97071.39
2023-10-08T02:21:47.872Z,97080.39
2023-10-08T02:24:15.853Z,97084.95
2023-10-08T02:26:44.951Z,97082.73
2023-10-08T02:29:13.334Z,97075.75
2023-10-08T02:31:42.457Z,97075.57
2023-10-08T02:34:11.056Z,97077.34
2023-10-08T02:36:44.786Z,97071.23
2023-10-08T02:39:22.844Z,97066.19
2023-10-08T02:41:51.112Z,97068.52
2023-10-08T02:44:19.205Z,97068.38
2023-10-08T02:46:48.945Z,97060.58
2023-10-08T02:49:21.604Z,97054.10
2023-10-08T02:51:59.688Z,97048.82
2023-10-08T02:54:37.484Z,97046.10
2023-10-08T02:57:11.144Z,97045.59
2023-10-08T02:59:46.325Z,97038.03
2023-10-08T03:02:22.834Z,97023.67
2023-10-08T03:04:53.955Z,97020.88
2023-10-08T03:07:33.300Z,97019.04
2023-10-08T03:10:05.504Z,97017.53
2023-10-08T03:12:35.021Z,97011.46
2023-10-08T03:15:23.036Z,97006.64
2023-10-08T03:17:52.610Z,97001.79
2023-10-08T03:20:40.134Z,96997.84
2023-10-08T03:23:24.985Z,96999.80
2023-10-08T03:26:00.242Z,97003.86
2023-10-08T03:28:29.372Z,97006.09
2023-10-08T03:31:05.238Z,97000.70
2023-10-08T03:33:38.718Z,97009.41
2023-10-08T03:36:35.251Z,97010.84
2023-10-08T03:39:14.411Z,97010.64
2023-10-08T03:41:43.159Z,97012.23
2023-10-08T03:44:14.288Z,97010.76
2023-10-08T03:46:44.013Z,97004.73
2023-10-08T03:49:26.502Z,96998.75
2023-10-08T03:51:54.674Z,97001.13
2023-10-08T03:54:35.996Z,97004.77
2023-10-08T03:57:14.539Z,97006.85
2023-10-08T03:59:43.158Z,97004.05
2023-10-08T04:02:25.791Z,96999.03
2023-10-08T04:05:13.967Z,96991.48
2023-10-08T04:08:01.902Z,96980.16
2023-10-08T04:10:40.034Z,96976.28
2023-10-08T04:13:10.801Z,96967.56
2023-10-08T04:15:42.746Z,96970.45
2023-10-08T04:18:12.111Z,96964.42
2023-10-08T04:20:40.757Z,96959.02
2023-10-08T04:23:22.016Z,96958.17
2023-10-08T04:25:55.590Z,96954.42
2023-10-08T04:28:29.879Z,96951.69
2023-10-08T04:31:15.977Z,96941.10
2023-10-08T04:33:45.926Z,96940.27
2023-10-08T04:36:19.332Z,96943.04
2023-10-08T04:38:49.601Z,96939.64
2023-10-08T04:41:20.526Z,96937.27
2023-10-08T04:43:50.923Z,96940.34
2023-10-08T04:46:41.178Z,96940.52
2023-10-08T04:49:19.008Z,96935.46
2023-10-08T04:51:50.311Z,96939.90
2023-10-08T04:54:18.628Z,96941.63
2023-10-08T04:56:46.779Z,96945.75
2023-10-08T04:59:15.194Z,96953.25
2023-10-08T05:01:48.983Z,96955.58
2023-10-08T05:04:30.207Z,96950.73
2023-10-08T05:07:18.543Z,96947.73
2023-10-08T05:09:53.579Z,96948.30
2023-10-08T05:12:41.791Z,96952.83
2023-10-08T05:15:15.887Z,96958.88
2023-10-08T05:17:51.643Z,96953.79
2023-10-08T05:20:40.247Z,96962.09
2023-10-08T05:23:31.119Z,96966.20
2023-10-08T05:26:10.394Z,96971.89
2023-10-08T05:29:08.608Z,96974.05
2023-10-08T05:31:42.838Z,96966.13
2023-10-08T05:34:25.014Z,96963.02
2023-10-08T05:37:22.424Z,96957.23
2023-10-08T05:39:57.035Z,96959.16
2023-10-08T05:42:44.900Z,96955.14
2023-10-08T05:45:13.287Z,96947.27
2023-10-08T05:47:52.713Z,96945.67
2023-10-08T05:50:20.878Z,96949.29
2023-10-08T05:53:03.042Z,96941.41
2023-10-08T05:55:35.719Z,96938.35
2023-10-08T05:58:15.094Z,96937.45
2023-10-08T06:00:50.713Z,96940.10
2023-10-08T06:03:38.367Z,96938.13
2023-10-08T06:06:23.917Z,96936.55
2023-10-08T06:09:10.252Z,96938.45
2023-10-08T06:11:45.732Z,96949.48
2023-10-08T06:14:29.697Z,96964.58
2023-10-08T06:17:14.765Z,96974.98
2023-10-08T06:19:44.529Z,96977.48
2023-10-08T06:22:12.495Z,96972.28
2023-10-08T06:24:40.680Z,96964.50
2023-10-08T06:27:08.668Z,96964.48
2023-10-08T06:29:36.757Z,96964.71
2023-10-08T06:32:05.863Z,96966.67
2023-10-08T06:34:33.874Z,96961.41
2023-10-08T06:37:02.838Z,96960.75
2023-10-08T06:40:00.501Z,96958.83
2023-10-08T06:42:30.644Z,96962.09
2023-10-08T06:44:59.901Z,96963.01
2023-10-08T06:47:30.880Z,96953.48
2023-10-08T06:49:59.295Z,96956.34
2023-10-08T06:52:27.897Z,96958.70
2023-10-08T06:54:55.904Z,96958.91
2023-10-08T06:57:27.754Z,96959.61
2023-10-08T06:59:56.065Z,96958.75
2023-10-08T07:02:24.806Z,96955.13
2023-10-08T07:04:54.181Z,96948.62
2023-10-08T07:07:22.319Z,96951.17
2023-10-08T07:09:52.966Z,96952.64
2023-10-08T07:12:20.964Z,96955.17
2023-10-08T07:14:48.896Z,96948.94
2023-10-08T07:17:21.511Z,96938.45
2023-10-08T07:19:52.229Z,96923.70
2023-10-08T07:22:23.881Z,96917.16
2023-10-08T07:24:53.239Z,96912.55
2023-10-08T07:27:26.138Z,96916.13
2023-10-08T07:29:57.917Z,96919.70
2023-10-08T07:32:27.612Z,96931.38
2023-10-08T07:35:15.860Z,96930.36
2023-10-08T07:37:46.274Z,96937.14
2023-10-08T07:40:15.502Z,96944.80
2023-10-08T07:42:45.339Z,96943.34
2023-10-08T07:45:19.269Z,96939.28
2023-10-08T07:47:47.593Z,96926.95
2023-10-08T07:50:17.318Z,96928.43
2023-10-08T07:52:46.331Z,96928.80
2023-10-08T07:55:19.381Z,96930.67
2023-10-08T07:57:47.752Z,96930.08
2023-10-08T08:00:39.196Z,96929.58
2023-10-08T08:03:07.354Z,96928.61
2023-10-08T08:05:42.019Z,96930.41
2023-10-08T08:08:15.730Z,96935.02
2023-10-08T08:10:44.982Z,96933.66
2023-10-08T08:13:13.857Z,96925.51
2023-10-08T08:15:45.945Z,96909.89
2023-10-08T08:18:23.744Z,96907.83
2023-10-08T08:20:52.286Z,96918.98
2023-10-08T08:23:21.939Z,96921.26
2023-10-08T08:26:16.556Z,96922.70
2023-10-08T08:28:47.383Z,96926.79
2023-10-08T08:31:15.560Z,96927.65
2023-10-08T08:34:00.979Z,96930.50
2023-10-08T08:36:30.462Z,96936.77
2023-10-08T08:38:59.179Z,96938.57
2023-10-08T08:41:27.294Z,96947.63
2023-10-08T08:44:01.778Z,96943.71
2023-10-08T08:46:36.476Z,96940.52
2023-10-08T08:49:08.701Z,96941.67
2023-10-08T08:51:37.355Z,96936.43
2023-10-08T08:54:20.681Z,96924.63
2023-10-08T08:56:49.863Z,96924.23
2023-10-08T08:59:18.747Z,96926.51
2023-10-08T09:01:47.406Z,96932.20
2023-10-08T09:04:18.038Z,96933.45
2023-10-08T09:06:46.235Z,96929.46
2023-10-08T09:09:23.624Z,96928.88
2023-10-08T09:11:54.176Z,96935.72
2023-10-08T09:14:24.151Z,96938.66
2023-10-08T09:16:53.224Z,96941.02
2023-10-08T09:19:24.864Z,96938.61
2023-10-08T09:22:07.235Z,96939.98
2023-10-08T09:24:40.087Z,96941.64
2023-10-08T09:27:09.580Z,96941.27
2023-10-08T09:29:41.698Z,96951.14
2023-10-08T09:32:12.198Z,96949.19
2023-10-08T09:34:41.292Z,96952.09
2023-10-08T09:37:09.393Z,96954.21
2023-10-08T09:39:40.175Z,96956.48
2023-10-08T09:42:12.966Z,96962.16
2023-10-08T09:44:41.399Z,96958.26
2023-10-08T09:47:13.472Z,96966.61
2023-10-08T09:49:51.731Z,96969.14
2023-10-08T09:52:25.329Z,96967.05
2023-10-08T09:55:11.493Z,96961.02
2023-10-08T09:57:40.167Z,96963.71
2023-10-08T10:00:32.640Z,96963.85
2023-10-08T10:03:04.789Z,96967.50
2023-10-08T10:05:39.242Z,96969.53
2023-10-08T10:08:11.249Z,96970.48
2023-10-08T10:10:40.215Z,96971.10
2023-10-08T10:13:11.851Z,96965.20
2023-10-08T10:15:41.695Z,96961.98
2023-10-08T10:18:17.114Z,96963.98
2023-10-08T10:20:55.429Z,96966.40
2023-10-08T10:23:46.855Z,96963.99
2023-10-08T10:26:28.134Z,96970.91
2023-10-08T10:29:17.458Z,96967.66
2023-10-08T10:31:50.720Z,96966.81
2023-10-08T10:34:20.706Z,96972.63
2023-10-08T10:36:51.350Z,96967.23
2023-10-08T10:39:31.444Z,96966.43
2023-10-08T10:42:21.738Z,96970.38
2023-10-08T10:44:51.215Z,96973.71
2023-10-08T10:47:19.706Z,96977.89
2023-10-08T10:49:49.945Z,96982.27
2023-10-08T10:52:32.969Z,96982.80
2023-10-08T10:55:19.582Z,96981.75
2023-10-08T10:57:56.974Z,96976.27
2023-10-08T11:00:50.085Z,96969.61
2023-10-08T11:03:19.258Z,96970.58
2023-10-08T11:05:52.995Z,96972.18
2023-10-08T11:08:24.541Z,96968.11
2023-10-08T11:10:54.546Z,96973.36
2023-10-08T11:13:30.211Z,96975.77
2023-10-08T11:16:01.189Z,96975.09
2023-10-08T11:18:29.461Z,96985.80
2023-10-08T11:21:17.404Z,96991.48
2023-10-08T11:23:54.103Z,96994.29
2023-10-08T11:26:33.822Z,97016.55
2023-10-08T11:29:10.783Z,97027.58
2023-10-08T11:31:40.730Z,97043.67
2023-10-08T11:34:14.753Z,97046.63
2023-10-08T11:36:54.901Z,97054.48
2023-10-08T11:39:23.253Z,97066.27
2023-10-08T11:42:17.985Z,97076.65
2023-10-08T11:44:46.052Z,97085.98
2023-10-08T11:47:22.452Z,97094.90
2023-10-08T11:50:10.134Z,97105.36
2023-10-08T11:52:44.598Z,97107.73
2023-10-08T11:55:20.005Z,97109.85
2023-10-08T11:57:53.232Z,97116.98
2023-10-08T12:00:32.629Z,97115.24
2023-10-08T12:03:03.481Z,97118.52
2023-10-08T12:05:33.512Z,97120.40
2023-10-08T12:08:02.464Z,97125.05
2023-10-08T12:10:35.663Z,97127.70
2023-10-08T12:13:07.049Z,97128.85
2023-10-08T12:15:39.653Z,97129.27
2023-10-08T12:18:16.681Z,97126.17
2023-10-08T12:20:45.415Z,97136.61
2023-10-08T12:23:20.759Z,97142.98
2023-10-08T12:25:53.602Z,97152.90
2023-10-08T12:28:23.119Z,97157.64
2023-10-08T12:30:55.180Z,97165.54
2023-10-08T12:33:27.571Z,97173.95
2023-10-08T12:35:57.375Z,97170.51
2023-10-08T12:38:29.739Z,97167.36
2023-10-08T12:41:00.600Z,97181.29
2023-10-08T12:43:28.690Z,97185.31
2023-10-08T12:45:57.933Z,97187.71
2023-10-08T12:48:30.085Z,97183.62
2023-10-08T12:50:58.257Z,97179.73
2023-10-08T12:53:28.296Z,97178.02
2023-10-08T12:55:59.200Z,97186.84
2023-10-08T12:58:30.898Z,97190.30
2023-10-08T13:00:59.619Z,97193.53
2023-10-08T13:03:31.931Z,97195.41
2023-10-08T13:06:07.116Z,97192.60
2023-10-08T13:08:35.464Z,97193.79
2023-10-08T13:11:03.678Z,97194.20
2023-10-08T13:13:33.788Z,97201.17
2023-10-08T13:16:08.270Z,97208.59
2023-10-08T13:18:38.940Z,97212.66
2023-10-08T13:21:07.956Z,97218.20
2023-10-08T13:23:37.111Z,97218.09
2023-10-08T13:26:11.177Z,97228.65
2023-10-08T13:28:41.322Z,97237.48
2023-10-08T13:31:12.617Z,97239.66
2023-10-08T13:33:44.055Z,97247.00
2023-10-08T13:36:18.998Z,97252.34
2023-10-08T13:38:48.437Z,97258.69
2023-10-08T13:41:17.557Z,97267.15
2023-10-08T13:43:52.781Z,97275.23
2023-10-08T13:46:24.361Z,97284.42
2023-10-08T13:48:53.080Z,97291.95
2023-10-08T13:51:26.585Z,97297.23
2023-10-08T13:54:04.412Z,97305.77
2023-10-08T13:56:32.748Z,97310.88
2023-10-08T13:59:05.767Z,97312.60
2023-10-08T14:01:35.869Z,97315.41
2023-10-08T14:04:07.845Z,97317.68
2023-10-08T14:06:38.155Z,97324.95
2023-10-08T14:09:10.680Z,97329.86
2023-10-08T14:11:39.378Z,97329.87
2023-10-08T14:14:12.745Z,97335.57
2023-10-08T14:16:43.881Z,97335.39
2023-10-08T14:19:14.058Z,97340.48
2023-10-08T14:22:05.628Z,97347.27
2023-10-08T14:24:36.810Z,97362.13
2023-10-08T14:27:16.832Z,97384.73
2023-10-08T14:29:46.224Z,97387.55
2023-10-08T14:32:14.355Z,97387.31
2023-10-08T14:34:48.325Z,97394.58
2023-10-08T14:37:35.831Z,97393.85
2023-10-08T14:40:23.050Z,97392.46
2023-10-08T14:42:59.665Z,97399.78
2023-10-08T14:45:37.355Z,97408.48
2023-10-08T14:48:12.859Z,97413.47
2023-10-08T14:50:43.911Z,97417.40
2023-10-08T14:53:12.304Z,97421.16
2023-10-08T14:55:40.396Z,97422.95
2023-10-08T14:58:11.643Z,97429.13
2023-10-08T15:00:42.517Z,97419.39
2023-10-08T15:03:10.666Z,97420.20
2023-10-08T15:05:39.441Z,97421.39
2023-10-08T15:08:11.606Z,97425.80
2023-10-08T15:10:40.411Z,97427.98
2023-10-08T15:13:09.166Z,97429.68
2023-10-08T15:15:37.165Z,97432.80
2023-10-08T15:18:07.519Z,97439.05
2023-10-08T15:20:36.477Z,97440.96
2023-10-08T15:23:06.001Z,97449.92
2023-10-08T15:25:34.008Z,97449.45
2023-10-08T15:28:02.757Z,97453.27
2023-10-08T15:30:30.823Z,97455.85
2023-10-08T15:32:59.061Z,97457.14
2023-10-08T15:35:27.694Z,97456.00
2023-10-08T15:37:55.777Z,97459.19
2023-10-08T15:40:24.369Z,97463.35
2023-10-08T15:42:56.098Z,97469.64
2023-10-08T15:45:25.544Z,97468.36
2023-10-08T15:47:54.601Z,97473.91
2023-10-08T15:50:26.593Z,97473.98
2023-10-08T15:52:56.414Z,97475.29
2023-10-08T15:55:27.114Z,97482.79
2023-10-08T15:57:55.725Z,97492.79
2023-10-08T16:00:24.164Z,97495.13
2023-10-08T16:02:52.654Z,97494.30
2023-10-08T16:05:20.931Z,97496.77
2023-10-08T16:07:50.038Z,97497.98
2023-10-08T16:10:18.099Z,97506.87
2023-10-08T16:12:46.093Z,97508.26
2023-10-08T16:15:16.649Z,97508.79
2023-10-08T16:17:45.593Z,97513.44
2023-10-08T16:20:17.150Z,97522.61
2023-10-08T16:22:49.029Z,97527.23
2023-10-08T16:25:18.188Z,97532.81
2023-10-08T16:27:51.000Z,97539.09
2023-10-08T16:30:25.203Z,97542.14
2023-10-08T16:32:55.281Z,97552.59
2023-10-08T16:35:26.350Z,97557.36
2023-10-08T16:37:57.469Z,97562.25
2023-10-08T16:40:26.203Z,97563.48
2023-10-08T16:42:54.296Z,97567.73
2023-10-08T16:45:23.051Z,97571.20
2023-10-08T16:47:54.439Z,97575.25
2023-10-08T16:50:25.243Z,97584.13
2023-10-08T16:53:01.088Z,97589.71
2023-10-08T16:55:32.689Z,97594.98
2023-10-08T16:58:03.928Z,97599.73
2023-10-08T17:00:31.918Z,97605.03
2023-10-08T17:03:01.450Z,97610.41
2023-10-08T17:05:30.458Z,97612.80
2023-10-08T17:07:58.989Z,97617.98
2023-10-08T17:10:30.886Z,97618.48
2023-10-08T17:12:59.832Z,97619.43
2023-10-08T17:15:27.822Z,97620.20
2023-10-08T17:17:56.046Z,97620.45
2023-10-08T17:20:24.610Z,97628.35
2023-10-08T17:22:55.106Z,97628.21
2023-10-08T17:25:23.423Z,97626.42
2023-10-08T17:27:51.501Z,97629.93
2023-10-08T17:30:23.081Z,97639.18
2023-10-08T17:32:54.565Z,97643.48
2023-10-08T17:35:22.660Z,97644.45
2023-10-08T17:37:50.895Z,97651.24
2023-10-08T17:40:23.375Z,97654.55
2023-10-08T17:42:52.737Z,97664.21
2023-10-08T17:45:25.120Z,97670.88
2023-10-08T17:47:56.934Z,97676.85
2023-10-08T17:50:27.860Z,97682.63
2023-10-08T17:52:57.335Z,97683.80
2023-10-08T17:55:25.410Z,97686.30
2023-10-08T17:57:54.321Z,97687.06
2023-10-08T18:00:26.815Z,97691.61
2023-10-08T18:02:57.297Z,97697.34
2023-10-08T18:05:28.389Z,97703.92
2023-10-08T18:07:58.935Z,97709.74
2023-10-08T18:10:29.638Z,97713.25
2023-10-08T18:12:58.730Z,97719.13
2023-10-08T18:15:32.047Z,97730.96
2023-10-08T18:18:06.396Z,97737.61
2023-10-08T18:20:41.732Z,97736.88
2023-10-08T18:23:12.201Z,97742.09
2023-10-08T18:25:43.394Z,97750.27
2023-10-08T18:28:12.089Z,97752.49
2023-10-08T18:30:40.861Z,97762.55
2023-10-08T18:33:10.271Z,97764.16
2023-10-08T18:35:45.028Z,97771.84
2023-10-08T18:38:15.045Z,97777.75
2023-10-08T18:40:43.407Z,97786.78
2023-10-08T18:43:14.591Z,97788.65
2023-10-08T18:45:46.195Z,97790.97
2023-10-08T18:48:15.826Z,97791.98
2023-10-08T18:50:46.338Z,97796.84
2023-10-08T18:53:14.807Z,97804.73
2023-10-08T18:58:19.653Z,97800.14
2023-10-08T19:00:49.211Z,97802.18
2023-10-08T19:03:17.373Z,97800.56
2023-10-08T19:05:45.701Z,97810.33
2023-10-08T19:08:13.702Z,97820.52
2023-10-08T19:10:42.091Z,97821.09
2023-10-08T19:13:10.469Z,97827.48
2023-10-08T19:15:40.526Z,97840.08
2023-10-08T19:18:08.648Z,97853.11
2023-10-08T19:20:39.034Z,97859.94
2023-10-08T19:23:07.090Z,97863.77
2023-10-08T19:25:55.398Z,97862.28
2023-10-08T19:28:25.479Z,97859.26
2023-10-08T19:30:55.939Z,97853.68
2023-10-08T19:33:24.354Z,97864.01
2023-10-08T19:36:00.149Z,97867.44
2023-10-08T19:38:29.164Z,97872.23
2023-10-08T19:40:58.597Z,97875.45
2023-10-08T19:43:26.719Z,97880.39
2023-10-08T19:45:55.434Z,97883.63
2023-10-08T19:48:23.634Z,97882.83
2023-10-08T19:50:54.883Z,97883.64
2023-10-08T19:53:23.131Z,97890.05
2023-10-08T19:55:52.810Z,97896.66
2023-10-08T19:58:21.946Z,97902.83
2023-10-08T20:00:51.295Z,97915.36
2023-10-08T20:03:21.427Z,97926.80
2023-10-08T20:05:49.832Z,97937.39
2023-10-08T20:08:17.768Z,97935.40
2023-10-08T20:10:46.184Z,97930.59
2023-10-08T20:13:16.380Z,97934.71
2023-10-08T20:15:47.677Z,97939.25
2023-10-08T20:18:17.120Z,97943.17
2023-10-08T20:20:45.467Z,97946.02
2023-10-08T20:23:13.670Z,97947.59
2023-10-08T20:25:42.156Z,97950.67
2023-10-08T20:28:12.621Z,97958.95
2023-10-08T20:30:45.317Z,97964.91
2023-10-08T20:33:14.537Z,97963.37
2023-10-08T20:35:44.772Z,97962.05
2023-10-08T20:38:13.977Z,97962.77
2023-10-08T20:40:44.209Z,97970.62
2023-10-08T20:43:14.206Z,97975.41
2023-10-08T20:45:42.446Z,97975.69
2023-10-08T20:48:15.172Z,97981.20
2023-10-08T20:50:46.029Z,97983.95
2023-10-08T20:53:17.528Z,97985.20
2023-10-08T20:55:47.472Z,97988.88
2023-10-08T20:58:18.978Z,97984.59
2023-10-08T21:00:48.245Z,97978.41
2023-10-08T21:03:17.760Z,97974.27
2023-10-08T21:05:48.162Z,97969.35
2023-10-08T21:08:17.549Z,97974.27
2023-10-08T21:13:18.134Z,97987.80
2023-10-08T21:15:46.950Z,97994.70
2023-10-08T21:18:15.067Z,97996.29
2023-10-08T21:20:49.412Z,97999.21
2023-10-08T21:23:17.639Z,98000.16
2023-10-08T21:25:46.613Z,98000.30
2023-10-08T21:28:15.312Z,97997.71
2023-10-08T21:30:43.550Z,97997.87
2023-10-08T21:33:11.797Z,97997.74
2023-10-08T21:35:40.154Z,97999.73
2023-10-08T21:38:11.972Z,98004.55
2023-10-08T21:40:40.914Z,98009.30
2023-10-08T21:43:09.087Z,98017.96
2023-10-08T21:45:38.692Z,98014.63
2023-10-08T21:48:07.880Z,98010.32
2023-10-08T21:50:38.082Z,98009.48
2023-10-08T21:53:06.717Z,98010.77
2023-10-08T21:55:34.778Z,98013.19
2023-10-08T21:58:04.185Z,98014.17
2023-10-08T22:00:32.177Z,98019.71
2023-10-08T22:03:02.211Z,98016.39
2023-10-08T22:05:32.433Z,98013.14
2023-10-08T22:08:07.753Z,98016.59
2023-10-08T22:10:35.886Z,98013.52
2023-10-08T22:13:10.309Z,98013.90
2023-10-08T22:15:46.530Z,98011.59
2023-10-08T22:18:30.089Z,98018.92
2023-10-08T22:21:08.138Z,98023.36
2023-10-08T22:23:41.087Z,98024.80
2023-10-08T22:26:12.354Z,98032.77
2023-10-08T22:28:44.303Z,98046.48
2023-10-08T22:31:13.891Z,98046.73
2023-10-08T22:33:49.695Z,98052.14
2023-10-08T22:36:21.420Z,98052.24
2023-10-08T22:38:49.998Z,98047.69
2023-10-08T22:41:20.333Z,98055.53
2023-10-08T22:43:56.041Z,98061.01
2023-10-08T22:46:26.574Z,98069.60
2023-10-08T22:49:04.765Z,98076.58
2023-10-08T22:51:37.907Z,98086.58
2023-10-08T22:54:09.177Z,98099.64
2023-10-08T22:56:37.677Z,98099.52
2023-10-08T22:59:09.025Z,98098.86
2023-10-08T23:01:39.986Z,98102.17
2023-10-08T23:04:10.923Z,98101.89
2023-10-08T23:06:43.282Z,98108.54
2023-10-08T23:09:15.668Z,98108.23
2023-10-08T23:11:49.028Z,98108.43
2023-10-08T23:14:20.174Z,98109.52
2023-10-08T23:16:56.463Z,98112.98
2023-10-08T23:19:27.209Z,98119.96
2023-10-08T23:21:57.730Z,98125.25
2023-10-08T23:24:25.761Z,98128.43
2023-10-08T23:26:53.810Z,98128.12
2023-10-08T23:29:21.725Z,98128.43
2023-10-08T23:31:50.431Z,98122.73
2023-10-08T23:34:18.864Z,98124.27
2023-10-08T23:36:52.490Z,98123.48
2023-10-08T23:39:26.954Z,98113.83
2023-10-08T23:42:02.815Z,98109.00
2023-10-08T23:44:35.190Z,98103.00
2023-10-08T23:47:08.863Z,98108.77
2023-10-08T23:49:48.831Z,98113.81
2023-10-08T23:52:23.513Z,98118.70
2023-10-08T23:54:58.215Z,98120.67
2023-10-08T23:57:46.181Z,98125.73
